Terminal Aerodrome Forecast
Issued by NWS Cleveland, OH

Home | Current Version | Previous Version | Graphics & Text | Print | Product List | Glossary On
Versions: 1 2 3 4 5 6 7 8 9 10 11 12 13 14 15 16 17 18 19 20 21 22 23
000
FTUS41 KCLE 280241 AAB
TAFMFD
TAF AMD
KMFD 280241Z 2803/2824 30008KT 3SM -RA BR OVC004
     FM280600 30014G22KT 2SM -RA BR OVC003
     FM281200 30014G22KT 5SM BR OVC006
     FM281500 31012G20KT P6SM OVC015
     FM282200 31012KT P6SM BKN050=

USA.gov is the U.S. government's official web portal to all federal, state and local government web resources and services.